Time;durP1;ratioP1;P1;durP2;ratioP2;P2;SDS_P1;SDS_P2;PMS_P1;PMS_P2;Temp;Humidity;BMP_temperature;BMP_pressure;BME280_temperature;BME280_humidity;BME280_pressure;Samples;Min_cycle;Max_cycle;Signal;HPM_P1;HPM_P2
2022/09/21 00:00:52;;;;;;;;;;;;;;;10.37;68.47;101087.38;1726278;83;25728;-60
2022/09/21 00:03:20;;;;;;;;;;;;;;;10.38;68.74;101089.56;1719361;83;25450;-60
2022/09/21 00:05:47;;;;;;;;;;;;;;;10.38;68.49;101082.84;1662097;86;25755;-60
2022/09/21 00:08:13;;;;;;;;;;;;;;;10.35;68.85;101085.27;1727268;83;28390;-60
2022/09/21 00:10:40;;;;;;;;;;;;;;;10.33;68.62;101079.16;1717037;83;25660;-60
2022/09/21 00:13:07;;;;;;;;;;;;;;;10.28;68.11;101083.57;1726983;83;25763;-60
2022/09/21 00:15:34;;;;;;;;;;;;;;;10.24;68.37;101083.48;1732071;81;25813;-61
2022/09/21 00:18:02;;;;;;;;;;;;;;;10.22;68.56;101083.25;1734029;81;25875;-60
2022/09/21 00:20:29;;;;;;;;;;;;;;;10.18;69.12;101080.80;1749513;81;27411;-60
2022/09/21 00:22:55;;;;;;;;;;;;;;;10.15;69.21;101087.77;1755719;81;25800;-60
2022/09/21 00:25:22;;;;;;;;;;;;;;;10.16;69.07;101088.63;1733115;81;25686;-61
2022/09/21 00:27:50;;;;;;;;;;;;;;;10.13;69.33;101085.68;1749746;81;25806;-60
2022/09/21 00:30:18;;;;;;;;;;;;;;;10.11;69.41;101093.52;1721304;81;25822;-60
2022/09/21 00:32:45;;;;;;;;;;;;;;;10.10;69.37;101089.98;1695836;84;27560;-60
2022/09/21 00:35:12;;;;;;;;;;;;;;;10.08;69.19;101095.13;1705026;84;25714;-60
2022/09/21 00:37:38;;;;;;;;;;;;;;;10.05;69.14;101102.09;1705042;84;25789;-61
2022/09/21 00:40:07;;;;;;;;;;;;;;;10.02;69.32;101100.01;1693330;83;26107;-60
2022/09/21 00:42:34;;;;;;;;;;;;;;;10.02;69.40;101105.38;1719887;83;25889;-61
2022/09/21 00:45:00;;;;;;;;;;;;;;;10.05;69.63;101100.23;1720208;83;27441;-60
2022/09/21 00:47:36;;;;;;;;;;;;;;;10.08;69.81;101094.63;1719831;83;25729;-61
2022/09/21 00:50:10;;;;;;;;;;;;;;;10.12;70.07;101095.23;1715171;82;25514;-58
2022/09/21 00:52:40;;;;;;;;;;;;;;;10.16;70.16;101094.01;1704846;84;25894;-59
2022/09/21 00:55:16;;;;;;;;;;;;;;;10.21;70.28;101094.47;1707386;82;25701;-60
2022/09/21 00:57:44;;;;;;;;;;;;;;;10.24;70.64;101095.58;1719839;82;27495;-59
2022/09/21 01:00:11;;;;;;;;;;;;;;;10.30;70.17;101093.72;1720029;83;25688;-59
2022/09/21 01:02:38;;;;;;;;;;;;;;;10.32;70.54;101094.92;1713669;83;26433;-59
2022/09/21 01:05:07;;;;;;;;;;;;;;;10.31;70.91;101094.09;1711559;83;25869;-58
2022/09/21 01:07:35;;;;;;;;;;;;;;;10.31;70.95;101095.43;1704391;84;26675;-59
2022/09/21 01:10:08;;;;;;;;;;;;;;;10.29;70.88;101094.70;1704492;84;27709;-60
2022/09/21 01:13:01;;;;;;;;;;;;;;;10.29;71.15;101096.03;1704282;84;25990;-60
2022/09/21 01:15:47;;;;;;;;;;;;;;;10.32;70.63;101094.92;1704400;84;25775;-61
2022/09/21 01:18:26;;;;;;;;;;;;;;;10.40;70.84;101092.48;1704504;84;25878;-60
2022/09/21 01:21:11;;;;;;;;;;;;;;;10.43;70.80;101091.40;1687119;84;26082;-59
2022/09/21 01:23:59;;;;;;;;;;;;;;;10.47;71.56;101094.19;1704348;83;27549;-60
2022/09/21 01:26:49;;;;;;;;;;;;;;;10.47;70.88;101090.15;1672805;84;25830;-59
2022/09/21 01:29:39;;;;;;;;;;;;;;;10.49;71.09;101088.19;1702652;83;25816;-60
2022/09/21 01:32:12;;;;;;;;;;;;;;;10.47;70.96;101088.80;1676902;85;25981;-60
2022/09/21 01:34:42;;;;;;;;;;;;;;;10.49;70.77;101088.19;1683900;84;25782;-59
2022/09/21 01:37:12;;;;;;;;;;;;;;;10.50;71.06;101089.91;1685987;84;27509;-61
2022/09/21 01:39:41;;;;;;;;;;;;;;;10.49;70.82;101086.84;1705737;83;25732;-60
2022/09/21 01:42:09;;;;;;;;;;;;;;;10.48;71.22;101082.45;1703859;84;25412;-59
2022/09/21 01:44:37;;;;;;;;;;;;;;;10.51;71.05;101083.55;1703967;84;26497;-61
2022/09/21 01:47:06;;;;;;;;;;;;;;;10.51;70.66;101082.67;1699897;84;25596;-59
2022/09/21 01:49:35;;;;;;;;;;;;;;;10.47;71.31;101075.36;1703513;84;28435;-60
2022/09/21 01:52:11;;;;;;;;;;;;;;;10.47;71.45;101078.05;1703503;84;25818;-60
2022/09/21 01:54:45;;;;;;;;;;;;;;;10.43;71.70;101078.80;1703515;84;25479;-60
2022/09/21 01:57:18;;;;;;;;;;;;;;;10.43;71.70;101082.83;1703773;84;26624;-58
2022/09/21 01:59:48;;;;;;;;;;;;;;;10.46;71.27;101089.78;1704507;84;25781;-60
2022/09/21 02:02:18;;;;;;;;;;;;;;;10.52;71.65;101081.70;1704253;84;27683;-60
2022/09/21 02:04:45;;;;;;;;;;;;;;;10.55;71.26;101089.52;1703810;84;26473;-58
2022/09/21 02:07:11;;;;;;;;;;;;;;;10.55;71.49;101088.17;1705774;83;25835;-60
2022/09/21 02:09:38;;;;;;;;;;;;;;;10.50;71.72;101088.56;1710928;83;25917;-61
2022/09/21 02:12:05;;;;;;;;;;;;;;;10.47;71.26;101089.67;1682094;82;25487;-60
2022/09/21 02:14:32;;;;;;;;;;;;;;;10.52;71.18;101089.77;1705493;84;27654;-60
2022/09/21 02:17:09;;;;;;;;;;;;;;;10.53;71.53;101091.48;1685060;84;25519;-60
2022/09/21 02:19:45;;;;;;;;;;;;;;;10.47;71.81;101093.71;1677006;84;25710;-60
2022/09/21 02:22:28;;;;;;;;;;;;;;;10.43;71.56;101092.24;1695266;84;26731;-60
2022/09/21 02:24:55;;;;;;;;;;;;;;;10.43;71.20;101090.06;1693486;84;25889;-58
2022/09/21 02:27:48;;;;;;;;;;;;;;;10.38;71.27;101087.75;1675819;84;27688;-60
2022/09/21 02:30:26;;;;;;;;;;;;;;;10.37;71.38;101093.20;1692820;84;25598;-60
2022/09/21 02:33:10;;;;;;;;;;;;;;;10.31;71.19;101087.83;1686112;84;25884;-60
2022/09/21 02:36:04;;;;;;;;;;;;;;;10.24;72.56;101080.79;1678358;85;25851;-59
2022/09/21 02:38:45;;;;;;;;;;;;;;;10.20;72.45;101077.97;1689112;84;25956;-60
2022/09/21 02:41:18;;;;;;;;;;;;;;;10.15;73.18;101085.58;1678351;85;28261;-60
2022/09/21 02:44:12;;;;;;;;;;;;;;;10.09;72.79;101081.55;1677655;84;26196;-60
2022/09/21 02:46:54;;;;;;;;;;;;;;;10.06;73.34;101084.48;1636613;87;25753;-60
2022/09/21 02:49:27;;;;;;;;;;;;;;;9.99;73.92;101090.87;1634695;86;25916;-60
2022/09/21 02:51:56;;;;;;;;;;;;;;;9.91;74.51;101092.45;1656224;85;26876;-60
2022/09/21 02:54:25;;;;;;;;;;;;;;;9.87;74.87;101090.00;1694247;84;27670;-60
2022/09/21 02:56:52;;;;;;;;;;;;;;;9.87;74.97;101091.84;1677877;84;25717;-61
2022/09/21 02:59:22;;;;;;;;;;;;;;;9.85;75.04;101097.36;1695347;84;25743;-59
2022/09/21 03:01:47;;;;;;;;;;;;;;;9.84;75.06;101090.74;1686935;84;25803;-61
2022/09/21 03:04:14;;;;;;;;;;;;;;;9.87;74.30;101087.82;1676842;84;25698;-60
2022/09/21 03:06:40;;;;;;;;;;;;;;;9.93;74.56;101088.66;1677257;85;27549;-60
2022/09/21 03:09:07;;;;;;;;;;;;;;;9.96;74.31;101092.92;1691430;84;25418;-60
2022/09/21 03:11:37;;;;;;;;;;;;;;;9.98;74.77;101091.84;1697201;84;25718;-60
2022/09/21 03:14:07;;;;;;;;;;;;;;;10.03;74.37;101088.28;1693024;84;25881;-60
2022/09/21 03:16:35;;;;;;;;;;;;;;;10.10;74.19;101081.05;1707176;84;26390;-59
2022/09/21 03:19:02;;;;;;;;;;;;;;;10.12;74.53;101085.34;1684033;84;27346;-59
2022/09/21 03:21:28;;;;;;;;;;;;;;;10.12;74.45;101085.81;1677839;84;25720;-60
2022/09/21 03:23:55;;;;;;;;;;;;;;;10.11;74.41;101083.63;1688063;84;25438;-59
2022/09/21 03:26:21;;;;;;;;;;;;;;;10.05;74.99;101085.95;1699436;84;25778;-59
2022/09/21 03:28:49;;;;;;;;;;;;;;;10.07;74.55;101079.98;1688733;84;25689;-61
2022/09/21 03:31:16;;;;;;;;;;;;;;;10.06;75.08;101089.02;1685231;84;27518;-59
2022/09/21 03:33:43;;;;;;;;;;;;;;;10.06;74.92;101079.61;1678709;84;25704;-59
2022/09/21 03:36:10;;;;;;;;;;;;;;;10.03;74.93;101084.75;1679709;84;26361;-59
2022/09/21 03:38:37;;;;;;;;;;;;;;;10.05;75.21;101078.73;1701089;84;26655;-58
2022/09/21 03:41:07;;;;;;;;;;;;;;;10.05;75.54;101081.92;1677790;84;25814;-59
2022/09/21 03:43:34;;;;;;;;;;;;;;;10.06;75.42;101084.98;1682971;84;27708;-59
2022/09/21 03:46:01;;;;;;;;;;;;;;;10.10;74.84;101087.77;1687611;84;25798;-59
2022/09/21 03:48:27;;;;;;;;;;;;;;;10.14;75.02;101081.17;1690396;84;25720;-60
2022/09/21 03:50:54;;;;;;;;;;;;;;;10.14;75.02;101083.87;1678057;85;25871;-59
2022/09/21 03:53:20;;;;;;;;;;;;;;;10.10;75.22;101091.33;1689939;84;25760;-59
2022/09/21 03:55:47;;;;;;;;;;;;;;;10.07;75.61;101090.22;1707722;84;27012;-60
2022/09/21 03:58:13;;;;;;;;;;;;;;;10.07;75.36;101097.45;1680443;84;25794;-60
2022/09/21 04:00:41;;;;;;;;;;;;;;;10.03;75.53;101095.00;1683666;84;25720;-59
2022/09/21 04:03:08;;;;;;;;;;;;;;;10.05;75.31;101101.58;1687858;84;26731;-60
2022/09/21 04:05:34;;;;;;;;;;;;;;;10.03;75.61;101104.41;1688367;84;25853;-60
2022/09/21 04:08:01;;;;;;;;;;;;;;;10.01;75.83;101111.73;1684106;84;28638;-60
2022/09/21 04:10:31;;;;;;;;;;;;;;;10.01;75.83;101114.42;1646197;85;25865;-59
2022/09/21 04:12:57;;;;;;;;;;;;;;;10.05;75.64;101110.16;1678929;84;25748;-59
2022/09/21 04:15:24;;;;;;;;;;;;;;;10.09;75.75;101117.84;1684127;84;26704;-59
2022/09/21 04:17:52;;;;;;;;;;;;;;;10.14;75.57;101114.78;1704391;84;25741;-58
2022/09/21 04:20:20;;;;;;;;;;;;;;;10.17;75.31;101113.20;1703485;84;27621;-60
2022/09/21 04:22:46;;;;;;;;;;;;;;;10.24;75.33;101111.71;1702960;84;25874;-60
2022/09/21 04:25:14;;;;;;;;;;;;;;;10.28;74.87;101114.49;1698151;84;25756;-59
2022/09/21 04:27:41;;;;;;;;;;;;;;;10.34;74.73;101117.17;1699046;84;25777;-59
2022/09/21 04:30:11;;;;;;;;;;;;;;;10.40;74.33;101120.73;1698598;84;25766;-59
2022/09/21 04:32:38;;;;;;;;;;;;;;;10.47;74.26;101125.11;1701546;84;28119;-59
2022/09/21 04:35:05;;;;;;;;;;;;;;;10.52;73.86;101124.27;1700024;84;25717;-59
2022/09/21 04:37:32;;;;;;;;;;;;;;;10.57;73.67;101132.79;1700408;82;25455;-58
2022/09/21 04:39:58;;;;;;;;;;;;;;;10.59;73.33;101130.83;1699409;83;25828;-59
2022/09/21 04:42:26;;;;;;;;;;;;;;;10.60;73.37;101132.55;1698599;84;27361;-59
2022/09/21 04:44:53;;;;;;;;;;;;;;;10.63;73.21;101128.23;1698505;84;28267;-60
2022/09/21 04:47:22;;;;;;;;;;;;;;;10.67;72.99;101132.86;1698589;84;25738;-59
2022/09/21 04:49:48;;;;;;;;;;;;;;;10.70;72.96;101132.62;1699254;84;25798;-61
2022/09/21 04:52:15;;;;;;;;;;;;;;;10.75;72.85;101139.84;1701636;84;26552;-60
2022/09/21 04:54:41;;;;;;;;;;;;;;;10.79;72.39;101136.39;1698066;82;25695;-60
2022/09/21 04:57:08;;;;;;;;;;;;;;;10.79;72.03;101141.27;1696174;84;27573;-61
2022/09/21 04:59:34;;;;;;;;;;;;;;;10.79;71.88;101136.39;1704874;84;25660;-60
2022/09/21 05:02:01;;;;;;;;;;;;;;;10.80;71.91;101142.98;1704897;84;25755;-60
2022/09/21 05:04:28;;;;;;;;;;;;;;;10.81;71.92;101139.78;1705176;83;25823;-60
2022/09/21 05:06:56;;;;;;;;;;;;;;;10.83;71.62;101147.75;1703841;84;26111;-59
2022/09/21 05:12:08;;;;;;;;;;;;;;;10.81;71.36;101146.52;1704118;84;25945;-59
2022/09/21 05:14:35;;;;;;;;;;;;;;;10.83;71.57;101149.09;1703576;84;25806;-60
2022/09/21 05:17:02;;;;;;;;;;;;;;;10.83;71.31;101152.63;1696741;84;25961;-61
2022/09/21 05:19:28;;;;;;;;;;;;;;;10.88;71.43;101150.90;1691038;84;26282;-60
2022/09/21 05:21:55;;;;;;;;;;;;;;;10.94;71.43;101148.55;1707356;84;28347;-60
2022/09/21 05:24:21;;;;;;;;;;;;;;;11.02;71.17;101153.30;1707017;84;25793;-60
2022/09/21 05:26:48;;;;;;;;;;;;;;;11.10;70.83;101156.20;1702520;84;25775;-60
2022/09/21 05:29:15;;;;;;;;;;;;;;;11.18;70.58;101142.56;1686249;84;25845;-60
2022/09/21 05:32:00;;;;;;;;;;;;;;;11.25;70.50;101154.00;1680970;84;25550;-60
2022/09/21 05:34:53;;;;;;;;;;;;;;;11.29;70.14;101146.55;1690834;84;27494;-60
2022/09/21 05:37:29;;;;;;;;;;;;;;;11.35;69.96;101142.44;1696926;83;25735;-61
2022/09/21 05:39:57;;;;;;;;;;;;;;;11.41;70.07;101150.86;1696039;83;25718;-60
2022/09/21 05:42:24;;;;;;;;;;;;;;;11.51;70.42;101151.41;1686872;83;26415;-61
2022/09/21 05:44:54;;;;;;;;;;;;;;;11.58;70.76;101153.45;1670202;84;25757;-59
2022/09/21 05:47:30;;;;;;;;;;;;;;;11.62;70.61;101156.73;1678331;84;27567;-60
2022/09/21 05:50:05;;;;;;;;;;;;;;;11.61;71.91;101158.22;1684937;84;25908;-59
2022/09/21 05:52:36;;;;;;;;;;;;;;;11.58;72.34;101157.97;1708286;83;25761;-59
2022/09/21 05:55:06;;;;;;;;;;;;;;;11.55;72.11;101153.70;1692428;84;26018;-60
2022/09/21 05:57:51;;;;;;;;;;;;;;;11.54;72.86;101156.55;1692497;84;25737;-60
2022/09/21 06:00:20;;;;;;;;;;;;;;;11.51;72.52;101159.49;1683259;84;27554;-60
2022/09/21 06:02:52;;;;;;;;;;;;;;;11.50;73.28;101161.34;1694667;83;26170;-60
2022/09/21 06:05:20;;;;;;;;;;;;;;;11.50;73.08;101157.78;1687750;84;26207;-59
2022/09/21 06:07:47;;;;;;;;;;;;;;;11.51;73.17;101161.71;1693915;83;25925;-59
2022/09/21 06:10:15;;;;;;;;;;;;;;;11.56;72.98;101162.66;1690216;83;25790;-58
2022/09/21 06:12:42;;;;;;;;;;;;;;;11.53;72.53;101168.30;1704823;84;28821;-59
2022/09/21 06:15:12;;;;;;;;;;;;;;;11.55;72.77;101164.98;1708553;83;25762;-59
2022/09/21 06:17:39;;;;;;;;;;;;;;;11.64;72.88;101172.75;1714086;83;25791;-59
2022/09/21 06:20:08;;;;;;;;;;;;;;;11.70;72.58;101173.08;1714006;83;25810;-59
2022/09/21 06:22:35;;;;;;;;;;;;;;;11.70;72.41;101178.95;1714358;83;26549;-59
2022/09/21 06:25:01;;;;;;;;;;;;;;;11.68;72.04;101175.55;1714487;82;27701;-59
2022/09/21 06:27:28;;;;;;;;;;;;;;;11.69;72.17;101177.27;1715427;83;25803;-60
2022/09/21 06:29:55;;;;;;;;;;;;;;;11.75;72.50;101184.80;1719072;82;25870;-59
2022/09/21 06:32:22;;;;;;;;;;;;;;;11.82;72.20;101188.67;1715499;83;25892;-60
2022/09/21 06:34:49;;;;;;;;;;;;;;;11.86;72.22;101183.38;1718140;82;27320;-60
2022/09/21 06:37:16;;;;;;;;;;;;;;;11.89;72.12;101192.53;1714138;83;27651;-59
2022/09/21 06:39:42;;;;;;;;;;;;;;;11.87;71.60;101182.39;1714820;82;25827;-61
2022/09/21 06:42:08;;;;;;;;;;;;;;;11.87;71.57;101189.14;1714271;83;25753;-60
2022/09/21 06:44:35;;;;;;;;;;;;;;;11.95;71.86;101194.34;1714663;83;26578;-60
2022/09/21 06:47:01;;;;;;;;;;;;;;;12.02;71.60;101199.08;1713913;83;25700;-61
2022/09/21 06:49:27;;;;;;;;;;;;;;;12.10;71.46;101188.12;1714553;83;27515;-61
2022/09/21 06:51:55;;;;;;;;;;;;;;;12.17;70.60;101188.78;1713923;82;25728;-61
2022/09/21 06:54:21;;;;;;;;;;;;;;;12.19;70.64;101194.89;1715582;83;25845;-60
2022/09/21 06:56:48;;;;;;;;;;;;;;;12.24;70.71;101198.53;1715064;83;26198;-59
2022/09/21 06:59:15;;;;;;;;;;;;;;;12.34;70.66;101194.50;1715414;83;25725;-61
2022/09/21 07:01:41;;;;;;;;;;;;;;;12.47;70.45;101192.42;1715011;83;27535;-59
2022/09/21 07:04:08;;;;;;;;;;;;;;;12.61;70.00;101191.66;1715218;83;26131;-60
2022/09/21 07:06:35;;;;;;;;;;;;;;;12.73;69.69;101191.06;1712867;82;25798;-59
2022/09/21 07:09:04;;;;;;;;;;;;;;;12.85;69.61;101193.97;1718208;82;27036;-60
2022/09/21 07:11:31;;;;;;;;;;;;;;;12.92;68.41;101195.61;1704519;82;25792;-59
2022/09/21 07:13:58;;;;;;;;;;;;;;;12.82;67.74;101199.16;1715297;83;27536;-59
2022/09/21 07:16:26;;;;;;;;;;;;;;;12.68;67.65;101194.18;1713028;83;25731;-59
2022/09/21 07:18:53;;;;;;;;;;;;;;;12.60;67.95;101194.86;1707209;83;25537;-59
2022/09/21 07:21:21;;;;;;;;;;;;;;;12.60;68.40;101200.74;1707233;84;25796;-59
2022/09/21 07:23:47;;;;;;;;;;;;;;;12.62;68.67;101201.47;1706987;83;25740;-60
2022/09/21 07:26:14;;;;;;;;;;;;;;;12.71;68.63;101199.28;1707266;84;26863;-59
2022/09/21 07:28:40;;;;;;;;;;;;;;;12.88;68.41;101199.58;1707119;83;25826;-60
2022/09/21 07:31:15;;;;;;;;;;;;;;;13.02;67.46;101202.36;1715840;82;25759;-59
2022/09/21 07:33:43;;;;;;;;;;;;;;;13.15;67.75;101201.08;1706973;84;25726;-58
2022/09/21 07:36:11;;;;;;;;;;;;;;;13.27;66.94;101199.59;1707228;84;25803;-60
2022/09/21 07:38:42;;;;;;;;;;;;;;;13.21;65.69;101205.06;1713397;82;28123;-60
2022/09/21 07:41:11;;;;;;;;;;;;;;;13.12;65.73;101203.22;1708466;82;25820;-60
2022/09/21 07:43:39;;;;;;;;;;;;;;;13.17;66.32;101208.19;1707016;83;25819;-60
2022/09/21 07:46:07;;;;;;;;;;;;;;;13.19;66.43;101204.86;1706847;83;25962;-60
2022/09/21 07:48:33;;;;;;;;;;;;;;;13.22;65.77;101199.19;1707220;84;25780;-60
2022/09/21 07:51:05;;;;;;;;;;;;;;;13.22;66.00;101202.72;1707342;84;27581;-59
2022/09/21 07:53:33;;;;;;;;;;;;;;;13.26;66.15;101201.45;1707008;83;25791;-61
2022/09/21 07:56:04;;;;;;;;;;;;;;;13.36;66.04;101202.78;1707398;84;25692;-60
2022/09/21 08:01:16;;;;;;;;;;;;;;;13.45;65.60;101206.00;1707454;84;25808;-60
2022/09/21 08:03:43;;;;;;;;;;;;;;;13.46;64.62;101210.42;1706941;83;27488;-59
2022/09/21 08:06:09;;;;;;;;;;;;;;;13.61;65.39;101206.77;1708080;83;25778;-60
2022/09/21 08:08:36;;;;;;;;;;;;;;;13.88;65.33;101208.31;1708478;82;25647;-59
2022/09/21 08:11:05;;;;;;;;;;;;;;;13.92;64.21;101212.45;1708979;83;26658;-59
2022/09/21 08:13:32;;;;;;;;;;;;;;;13.94;64.68;101207.72;1704969;83;25724;-60
2022/09/21 08:15:59;;;;;;;;;;;;;;;13.99;65.44;101215.39;1706195;84;27474;-60
2022/09/21 08:18:27;;;;;;;;;;;;;;;13.93;66.05;101213.64;1693479;83;26390;-59
2022/09/21 08:20:58;;;;;;;;;;;;;;;13.83;66.77;101209.27;1691801;84;25858;-59
2022/09/21 08:23:27;;;;;;;;;;;;;;;13.72;66.89;101207.09;1690917;84;25979;-60
2022/09/21 08:25:59;;;;;;;;;;;;;;;13.76;67.17;101211.70;1689221;84;25777;-60
2022/09/21 08:28:27;;;;;;;;;;;;;;;13.89;67.47;101214.08;1681027;85;27616;-60
2022/09/21 08:30:54;;;;;;;;;;;;;;;14.07;67.04;101209.61;1684936;84;25766;-60
2022/09/21 08:33:21;;;;;;;;;;;;;;;14.29;66.61;101203.47;1655117;83;25816;-60
2022/09/21 08:35:55;;;;;;;;;;;;;;;14.50;65.14;101199.63;1682974;84;26444;-60
2022/09/21 08:38:21;;;;;;;;;;;;;;;14.69;65.69;101200.91;1692160;84;25909;-59
2022/09/21 08:40:49;;;;;;;;;;;;;;;14.69;64.18;101203.61;1686038;83;29787;-59
2022/09/21 08:43:38;;;;;;;;;;;;;;;14.73;64.63;101201.97;1687939;84;26264;-60
2022/09/21 08:46:08;;;;;;;;;;;;;;;14.69;62.84;101206.84;1684173;85;25798;-59
2022/09/21 08:48:39;;;;;;;;;;;;;;;14.60;62.76;101201.79;1685772;85;25981;-60
2022/09/21 08:51:08;;;;;;;;;;;;;;;14.58;63.17;101201.08;1685619;83;25811;-61
2022/09/21 08:53:41;;;;;;;;;;;;;;;14.66;63.65;101191.72;1654759;86;28711;-60
2022/09/21 08:56:12;;;;;;;;;;;;;;;14.81;63.90;101192.56;1661975;84;26402;-60
2022/09/21 08:58:40;;;;;;;;;;;;;;;14.85;61.92;101193.95;1687561;84;26510;-60
2022/09/21 09:01:13;;;;;;;;;;;;;;;14.90;62.75;101189.42;1684277;84;25826;-60
2022/09/21 09:04:06;;;;;;;;;;;;;;;14.80;61.67;101189.51;1684916;85;25460;-60
2022/09/21 09:06:42;;;;;;;;;;;;;;;14.82;62.04;101183.44;1683591;85;28816;-61
2022/09/21 09:09:18;;;;;;;;;;;;;;;15.10;62.25;101184.20;1682481;83;25952;-60
2022/09/21 09:12:07;;;;;;;;;;;;;;;15.43;62.28;101187.69;1670599;85;25521;-59
2022/09/21 09:14:39;;;;;;;;;;;;;;;15.59;61.10;101181.02;1682535;84;27948;-60
2022/09/21 09:17:19;;;;;;;;;;;;;;;15.57;59.19;101181.67;1689186;82;25816;-61
2022/09/21 09:19:52;;;;;;;;;;;;;;;15.61;60.23;101176.78;1675799;84;28706;-60
2022/09/21 09:22:25;;;;;;;;;;;;;;;15.44;58.83;101182.09;1702164;83;25803;-61
2022/09/21 09:24:54;;;;;;;;;;;;;;;15.23;59.14;101175.67;1708930;84;25663;-60
2022/09/21 09:27:24;;;;;;;;;;;;;;;15.27;59.49;101170.30;1709085;83;25770;-60
2022/09/21 09:30:00;;;;;;;;;;;;;;;15.49;60.11;101167.58;1715951;83;26605;-60
2022/09/21 09:32:41;;;;;;;;;;;;;;;15.79;59.84;101165.89;1710009;83;28775;-61
2022/09/21 09:35:14;;;;;;;;;;;;;;;16.22;60.36;101162.72;1690445;84;25837;-61
2022/09/21 09:37:41;;;;;;;;;;;;;;;16.55;57.92;101165.53;1707390;83;25564;-60
2022/09/21 09:40:11;;;;;;;;;;;;;;;16.68;55.74;101158.25;1706972;83;25845;-60
2022/09/21 09:42:51;;;;;;;;;;;;;;;16.68;54.09;101154.70;1709284;83;26543;-59
2022/09/21 09:45:40;;;;;;;;;;;;;;;16.82;54.90;101149.13;1687284;82;27594;-60
2022/09/21 09:48:20;;;;;;;;;;;;;;;16.97;54.86;101148.81;1707190;82;25858;-60
2022/09/21 09:50:47;;;;;;;;;;;;;;;17.02;53.11;101149.67;1694408;84;25849;-61
2022/09/21 09:53:19;;;;;;;;;;;;;;;16.78;51.60;101151.82;1708764;84;25878;-61
2022/09/21 09:55:51;;;;;;;;;;;;;;;16.58;53.10;101157.58;1706889;84;27403;-62
2022/09/21 09:58:21;;;;;;;;;;;;;;;16.70;53.60;101148.60;1705430;83;27501;-61
2022/09/21 10:00:53;;;;;;;;;;;;;;;17.10;53.21;101145.59;1705871;83;25743;-61
2022/09/21 10:03:26;;;;;;;;;;;;;;;17.78;51.94;101143.46;1703814;84;25799;-61
2022/09/21 10:05:52;;;;;;;;;;;;;;;17.85;50.61;101139.50;1709669;84;25867;-61
2022/09/21 10:08:45;;;;;;;;;;;;;;;17.70;50.25;101134.45;1710453;82;25822;-61
2022/09/21 10:11:14;;;;;;;;;;;;;;;17.62;51.26;101136.67;1709881;84;27497;-60
2022/09/21 10:13:43;;;;;;;;;;;;;;;17.56;50.96;101145.05;1709959;84;25819;-60
2022/09/21 10:16:15;;;;;;;;;;;;;;;17.29;50.30;101154.42;1708794;84;25774;-60
2022/09/21 10:18:51;;;;;;;;;;;;;;;16.96;51.29;101143.56;1697218;83;25783;-60
2022/09/21 10:21:24;;;;;;;;;;;;;;;16.78;51.85;101146.39;1693408;84;26020;-60
2022/09/21 10:23:54;;;;;;;;;;;;;;;16.83;52.63;101144.03;1694136;84;27636;-60
2022/09/21 10:26:21;;;;;;;;;;;;;;;16.73;51.45;101140.97;1677875;85;25738;-61
2022/09/21 10:29:20;;;;;;;;;;;;;;;16.84;52.72;101132.16;1696745;84;25846;-61
2022/09/21 10:31:56;;;;;;;;;;;;;;;17.02;51.28;101148.31;1621630;88;25842;-60
2022/09/21 10:34:23;;;;;;;;;;;;;;;17.70;50.51;101139.90;1673355;85;25926;-61
2022/09/21 10:36:57;;;;;;;;;;;;;;;19.19;47.65;101138.59;1682986;84;28286;-61
2022/09/21 10:39:30;;;;;;;;;;;;;;;19.20;46.75;101130.73;1672766;85;25754;-60
2022/09/21 10:41:59;;;;;;;;;;;;;;;19.01;46.50;101132.95;1677502;84;25820;-61
2022/09/21 10:44:35;;;;;;;;;;;;;;;18.69;46.62;101130.76;1680095;84;28025;-61
2022/09/21 10:47:05;;;;;;;;;;;;;;;18.36;46.80;101134.22;1691371;84;25768;-59
2022/09/21 10:49:33;;;;;;;;;;;;;;;17.94;47.63;101131.64;1693327;84;28148;-60
2022/09/21 10:52:01;;;;;;;;;;;;;;;17.68;48.68;101127.84;1696083;84;25828;-61
2022/09/21 10:54:30;;;;;;;;;;;;;;;17.62;49.59;101132.10;1696551;84;25758;-60
2022/09/21 10:57:02;;;;;;;;;;;;;;;17.49;49.99;101123.12;1697282;84;26261;-60
2022/09/21 10:59:31;;;;;;;;;;;;;;;17.53;50.22;101124.98;1709624;84;25841;-60
2022/09/21 11:01:59;;;;;;;;;;;;;;;17.49;49.38;101123.12;1710011;84;27448;-60
2022/09/21 11:04:38;;;;;;;;;;;;;;;17.35;49.08;101113.80;1709765;84;25777;-60
2022/09/21 11:07:17;;;;;;;;;;;;;;;17.26;49.54;101118.91;1677685;84;25802;-60
2022/09/21 11:10:15;;;;;;;;;;;;;;;17.05;49.26;101124.36;1657416;86;26031;-60
2022/09/21 11:13:03;;;;;;;;;;;;;;;17.09;50.26;101112.63;1682135;84;25746;-61
2022/09/21 11:16:02;;;;;;;;;;;;;;;18.68;49.17;101110.02;1700650;84;27493;-61
2022/09/21 11:18:39;;;;;;;;;;;;;;;19.01;46.86;101108.91;1713030;83;25762;-60
2022/09/21 11:21:27;;;;;;;;;;;;;;;18.97;45.31;101109.80;1716094;83;25460;-60
2022/09/21 11:24:03;;;;;;;;;;;;;;;18.59;44.44;101102.92;1715630;83;25840;-61
2022/09/21 11:26:36;;;;;;;;;;;;;;;18.44;44.33;101109.13;1682275;83;26063;-61
2022/09/21 11:29:25;;;;;;;;;;;;;;;18.24;45.84;101116.91;1715953;82;27526;-61
2022/09/21 11:32:29;;;;;;;;;;;;;;;18.04;46.25;101102.03;1715653;83;26249;-61
2022/09/21 11:35:23;;;;;;;;;;;;;;;17.92;46.82;101111.95;1719579;83;25689;-60
2022/09/21 11:38:03;;;;;;;;;;;;;;;17.61;48.99;101113.24;1716169;82;25735;-62
2022/09/21 11:40:59;;;;;;;;;;;;;;;17.28;52.05;101110.57;1689543;83;26157;-61
2022/09/21 11:43:57;;;;;;;;;;;;;;;16.84;53.68;101121.28;1714896;83;26889;-61
2022/09/21 11:46:43;;;;;;;;;;;;;;;16.36;53.68;101119.69;1713713;83;25891;-61
2022/09/21 11:49:31;;;;;;;;;;;;;;;16.00;55.60;101119.91;1715949;83;25714;-61
2022/09/21 11:52:23;;;;;;;;;;;;;;;15.72;57.24;101118.73;1712621;83;25795;-61
2022/09/21 11:54:59;;;;;;;;;;;;;;;15.55;58.74;101117.28;1716099;83;25733;-61
2022/09/21 11:57:49;;;;;;;;;;;;;;;15.33;60.23;101116.80;1715886;83;28062;-61
2022/09/21 12:00:19;;;;;;;;;;;;;;;15.13;61.38;101125.64;1715157;83;25537;-61
2022/09/21 12:02:56;;;;;;;;;;;;;;;14.86;61.49;101127.45;1714536;83;25671;-60
2022/09/21 12:05:26;;;;;;;;;;;;;;;14.77;62.58;101116.20;1714520;83;25823;-59
2022/09/21 12:08:31;;;;;;;;;;;;;;;14.78;62.15;101120.61;1714147;83;25672;-60
2022/09/21 12:11:11;;;;;;;;;;;;;;;14.91;62.29;101120.70;1714692;83;27698;-61
2022/09/21 12:13:44;;;;;;;;;;;;;;;15.15;62.39;101126.83;1715360;83;25439;-61
2022/09/21 12:16:24;;;;;;;;;;;;;;;15.25;62.39;101119.45;1715568;83;25825;-60
2022/09/21 12:18:59;;;;;;;;;;;;;;;15.26;62.13;101122.52;1714159;83;25903;-61
2022/09/21 12:21:29;;;;;;;;;;;;;;;15.26;61.60;101126.58;1712361;83;25465;-60
2022/09/21 12:24:23;;;;;;;;;;;;;;;15.33;61.16;101123.58;1712448;83;28476;-60
2022/09/21 12:26:54;;;;;;;;;;;;;;;15.43;60.16;101133.47;1711958;83;25810;-60
2022/09/21 12:29:27;;;;;;;;;;;;;;;15.52;61.18;101129.80;1713803;82;26267;-61
2022/09/21 12:32:20;;;;;;;;;;;;;;;16.05;60.54;101120.25;1708906;83;25819;-60
2022/09/21 12:34:50;;;;;;;;;;;;;;;17.27;59.19;101121.11;1708559;83;25771;-60
2022/09/21 12:37:26;;;;;;;;;;;;;;;18.49;57.34;101111.31;1711487;83;27643;-60
2022/09/21 12:40:19;;;;;;;;;;;;;;;18.90;53.69;101111.03;1704957;83;25787;-60
2022/09/21 12:43:01;;;;;;;;;;;;;;;18.91;52.22;101109.14;1707972;83;25778;-61
2022/09/21 12:45:34;;;;;;;;;;;;;;;18.94;54.00;101115.63;1704144;83;26253;-61
2022/09/21 12:48:32;;;;;;;;;;;;;;;18.75;53.28;101110.11;1704428;83;25730;-60
2022/09/21 12:51:11;;;;;;;;;;;;;;;18.42;53.61;101119.35;1708303;83;28338;-60
2022/09/21 12:53:40;;;;;;;;;;;;;;;18.08;54.87;101117.84;1692392;83;25819;-60
2022/09/21 12:56:12;;;;;;;;;;;;;;;17.82;55.64;101116.74;1711320;83;25782;-60
2022/09/21 12:59:15;;;;;;;;;;;;;;;17.60;56.15;101114.27;1708835;83;26285;-60
2022/09/21 13:02:15;;;;;;;;;;;;;;;17.40;56.83;101107.84;1704547;83;25506;-60
2022/09/21 13:05:01;;;;;;;;;;;;;;;17.35;57.83;101110.22;1680915;84;28667;-61
2022/09/21 13:07:50;;;;;;;;;;;;;;;17.42;57.91;101113.97;1712163;83;26543;-61
2022/09/21 13:10:20;;;;;;;;;;;;;;;17.50;56.99;101115.30;1705682;83;25795;-60